METAR πλησιέστερων αεροδρομίων

 

LGIR - Iraklion Airport
Απόσταση από το σταθμό: ΒΔ 62km
Ενημερώθηκε: 21/08/2019 14:50
Λίγα σύννεφα
Λίγα σύννεφα
 Ανεμος από ΒΒΔ
Ανεμος: ΒΒΔ 26 km/h
Θερμοκρασία: 28°C
Δείκτης Δυσφορίας: 29°C
Σημείο Δρόσου: 20°C
Υγρασία: 62%
Βαρόμετρο: 1014 hPa
Νέφη: Λίγα σύννεφα
Ορατότητα: 10 km
Λεπτομέρειες νεφών: Λίγα σύννεφα 762 m
2019/08/21 11:50 LGIR 211150Z 33014KT 9999 FEW025 28/20 Q1014 NOSIG
LGSA - Souda/Chania Airport
Απόσταση από το σταθμό: ΔΒΔ 154km
Ενημερώθηκε: 21/08/2019 14:50
Λίγα σύννεφα
Λίγα σύννεφα
 Ανεμος από Β
Ανεμος: Β 15 km/h
Θερμοκρασία: 28°C
Δείκτης Δυσφορίας: 29°C
Σημείο Δρόσου: 18°C
Υγρασία: 55%
Βαρόμετρο: 1014 hPa
Νέφη: Λίγα σύννεφα
Ορατότητα: 10 km
Λεπτομέρειες νεφών: Λίγα σύννεφα 610 m
2019/08/21 11:50 LGSA 211150Z 36008KT 9999 FEW020 28/18 Q1014